Time;durP1;ratioP1;P1;durP2;ratioP2;P2;SDS_P1;SDS_P2;PMS_P1;PMS_P2;Temp;Humidity;BMP_temperature;BMP_pressure;BME280_temperature;BME280_humidity;BME280_pressure;Samples;Min_cycle;Max_cycle;Signal;HPM_P1;HPM_P2
2021/09/13 00:02:27;;;;;;;9.10;6.00;;;;;;;16.69;57.61;101202.72;6151172;23;20154;-64
2021/09/13 00:04:52;;;;;;;10.33;6.03;;;;;;;16.61;57.49;101181.88;6151861;23;20177;-64
2021/09/13 00:07:18;;;;;;;13.17;6.07;;;;;;;16.42;57.45;101157.84;6152830;23;20493;-65
2021/09/13 00:09:43;;;;;;;8.87;5.63;;;;;;;16.66;57.41;101198.81;6153722;23;20156;-65
2021/09/13 00:12:09;;;;;;;8.63;5.50;;;;;;;16.49;57.63;101191.16;6152336;23;20161;-65
2021/09/13 00:14:34;;;;;;;9.77;5.97;;;;;;;16.55;58.29;101201.28;6153392;23;20235;-65
2021/09/13 00:17:00;;;;;;;9.47;6.20;;;;;;;16.54;58.26;101196.91;6153872;23;20185;-64
2021/09/13 00:19:25;;;;;;;10.07;5.73;;;;;;;16.57;58.33;101206.41;6153331;23;20161;-65
2021/09/13 00:21:51;;;;;;;8.60;5.53;;;;;;;16.57;58.02;101198.03;6153886;23;20150;-67
2021/09/13 00:24:16;;;;;;;9.97;6.00;;;;;;;16.52;58.68;101207.81;6152035;23;20245;-64
2021/09/13 00:26:41;;;;;;;7.97;6.17;;;;;;;15.98;59.51;101128.41;6153324;23;20202;-65
2021/09/13 00:29:07;;;;;;;13.10;6.20;;;;;;;16.38;59.31;101194.31;6151789;23;20157;-65
2021/09/13 00:31:32;;;;;;;15.53;6.57;;;;;;;16.42;59.83;101213.78;6153743;23;20161;-64
2021/09/13 00:33:58;;;;;;;21.00;9.63;;;;;;;16.08;59.56;101169.16;6153825;23;20619;-64
2021/09/13 00:36:23;;;;;;;17.93;7.30;;;;;;;16.23;59.05;101200.91;6153507;23;20590;-65
2021/09/13 00:38:49;;;;;;;11.47;6.60;;;;;;;16.27;59.18;101215.53;6152865;23;20165;-64
2021/09/13 00:41:14;;;;;;;16.07;6.77;;;;;;;16.08;59.37;101181.09;6153870;23;20154;-65
2021/09/13 00:43:40;;;;;;;13.00;7.17;;;;;;;16.29;59.62;101215.88;6153562;23;20614;-65
2021/09/13 00:46:06;;;;;;;16.53;7.23;;;;;;;16.28;59.84;101223.47;6153588;23;20536;-65
2021/09/13 00:48:31;;;;;;;13.23;7.37;;;;;;;16.15;60.23;101203.22;6152691;23;20156;-65
2021/09/13 00:50:57;;;;;;;13.13;7.37;;;;;;;16.29;61.05;101230.63;6153724;23;20152;-65
2021/09/13 00:53:23;;;;;;;10.63;6.43;;;;;;;16.14;60.93;101212.81;6153462;23;20160;-65
2021/09/13 00:55:49;;;;;;;9.90;6.60;;;;;;;16.24;60.38;101217.22;6153473;23;20146;-65
2021/09/13 00:58:15;;;;;;;10.60;7.13;;;;;;;16.19;60.45;101225.44;6152970;23;20498;-65
2021/09/13 01:00:41;;;;;;;17.63;7.73;;;;;;;15.97;60.79;101216.25;6153242;23;20151;-65
2021/09/13 01:03:06;;;;;;;16.93;7.33;;;;;;;16.05;60.76;101212.00;6153400;23;20595;-65
2021/09/13 01:05:31;;;;;;;13.53;7.37;;;;;;;16.12;60.84;101222.91;6153333;23;20188;-65
2021/09/13 01:07:58;;;;;;;11.73;6.93;;;;;;;16.12;60.11;101220.09;6152396;23;20235;-65
2021/09/13 01:10:24;;;;;;;16.20;7.07;;;;;;;16.13;60.14;101219.66;6153069;23;20162;-65
2021/09/13 01:12:49;;;;;;;17.40;7.20;;;;;;;16.14;60.43;101220.44;6153909;23;20153;-65
2021/09/13 01:15:15;;;;;;;16.37;7.60;;;;;;;15.96;60.78;101192.34;6152853;23;20153;-65
2021/09/13 01:17:41;;;;;;;26.00;9.00;;;;;;;15.99;60.85;101197.81;6152587;23;20151;-65
2021/09/13 01:20:07;;;;;;;20.97;8.67;;;;;;;16.15;60.88;101222.00;6153410;23;20150;-65
2021/09/13 01:22:33;;;;;;;17.33;8.33;;;;;;;16.10;61.05;101222.59;6151592;23;20244;-65
2021/09/13 01:24:59;;;;;;;14.33;7.90;;;;;;;15.88;60.40;101200.22;6153279;23;20180;-65
2021/09/13 01:27:25;;;;;;;17.63;7.83;;;;;;;16.09;60.35;101232.22;6152274;23;20258;-65
2021/09/13 01:29:52;;;;;;;13.27;7.03;;;;;;;16.08;59.76;101233.44;6151786;23;20184;-65
2021/09/13 01:32:18;;;;;;;14.30;6.80;;;;;;;16.08;59.84;101231.41;6153051;23;20167;-65
2021/09/13 01:34:44;;;;;;;9.60;6.80;;;;;;;15.94;59.74;101208.81;6152936;23;20554;-68
2021/09/13 01:37:10;;;;;;;14.47;7.47;;;;;;;16.09;60.22;101243.41;6152994;23;20152;-67
2021/09/13 01:39:36;;;;;;;9.73;6.53;;;;;;;15.76;60.57;101200.25;6152984;23;20154;-65
2021/09/13 01:42:02;;;;;;;11.83;6.50;;;;;;;15.84;59.03;101246.31;6153216;23;20184;-67
2021/09/13 01:44:27;;;;;;;11.67;6.57;;;;;;;15.81;59.46;101241.59;6152634;23;20563;-66
2021/09/13 01:46:53;;;;;;;9.37;6.27;;;;;;;15.73;58.89;101229.91;6153098;23;20222;-67
2021/09/13 01:49:19;;;;;;;10.97;6.77;;;;;;;15.47;59.62;101196.94;6152410;23;20522;-67
2021/09/13 01:51:45;;;;;;;11.33;6.63;;;;;;;15.41;59.45;101182.75;6152759;23;20615;-67
2021/09/13 01:54:11;;;;;;;10.67;7.20;;;;;;;15.69;60.13;101237.66;6152843;23;20233;-65
2021/09/13 01:56:37;;;;;;;10.10;6.50;;;;;;;15.71;59.80;101239.97;6152908;23;20227;-68
2021/09/13 01:59:03;;;;;;;12.80;7.07;;;;;;;15.58;59.01;101234.41;6152547;23;20649;-67
2021/09/13 02:01:28;;;;;;;9.27;6.30;;;;;;;15.63;58.95;101244.25;6152912;23;20184;-67
2021/09/13 02:03:54;;;;;;;9.97;6.40;;;;;;;15.57;59.06;101246.06;6151303;23;20604;-67
2021/09/13 02:06:19;;;;;;;11.57;6.90;;;;;;;15.07;59.01;101179.13;6152934;23;20219;-67
2021/09/13 02:08:46;;;;;;;11.67;7.33;;;;;;;15.37;59.29;101239.97;6150475;23;20206;-67
2021/09/13 02:11:11;;;;;;;45.90;10.37;;;;;;;15.15;59.53;101216.72;6153324;23;20191;-67
2021/09/13 02:13:38;;;;;;;50.20;10.87;;;;;;;15.26;59.82;101250.69;6152613;23;20225;-67
2021/09/13 02:16:05;;;;;;;38.07;9.60;;;;;;;15.21;59.79;101251.25;6152701;23;20156;-67
2021/09/13 02:18:30;;;;;;;27.77;8.27;;;;;;;15.22;59.79;101245.19;6152002;23;20316;-67
2021/09/13 02:20:56;;;;;;;26.10;8.33;;;;;;;15.03;59.75;101217.53;6152734;23;20641;-67
2021/09/13 02:23:21;;;;;;;16.77;7.80;;;;;;;15.26;59.51;101247.91;6152841;23;20163;-67
2021/09/13 02:25:46;;;;;;;20.43;7.97;;;;;;;15.17;60.09;101245.75;6152479;23;20193;-68
2021/09/13 02:28:12;;;;;;;16.53;7.70;;;;;;;15.07;60.40;101251.69;6151500;23;20221;-67
2021/09/13 02:30:38;;;;;;;11.30;8.00;;;;;;;15.08;60.26;101242.88;6126236;23;20643;-67
2021/09/13 02:33:04;;;;;;;15.07;7.83;;;;;;;15.04;60.59;101247.78;6152681;23;20159;-67
2021/09/13 02:35:30;;;;;;;11.40;7.07;;;;;;;14.77;60.25;101204.84;6152520;23;20207;-67
2021/09/13 02:37:55;;;;;;;18.07;7.70;;;;;;;15.03;60.20;101253.81;6152002;23;20231;-67
2021/09/13 02:40:21;;;;;;;11.00;7.07;;;;;;;14.99;60.53;101250.34;6152444;23;20164;-67
2021/09/13 02:42:49;;;;;;;10.53;6.83;;;;;;;15.00;60.22;101251.91;6125808;23;20197;-67
2021/09/13 02:45:15;;;;;;;9.63;6.70;;;;;;;14.95;60.09;101256.06;6152780;23;20188;-67
2021/09/13 02:47:41;;;;;;;10.00;6.70;;;;;;;15.06;60.03;101253.69;6151673;23;20156;-67
2021/09/13 02:50:07;;;;;;;11.53;7.53;;;;;;;14.96;59.82;101257.63;6152379;23;20155;-67
2021/09/13 02:52:34;;;;;;;10.10;7.40;;;;;;;14.96;59.84;101263.19;6152244;23;20568;-67
2021/09/13 02:54:59;;;;;;;10.50;7.00;;;;;;;14.95;59.66;101260.84;6152616;23;20146;-68
2021/09/13 02:57:25;;;;;;;9.80;6.53;;;;;;;15.03;59.46;101262.19;6152075;23;20155;-67
2021/09/13 02:59:50;;;;;;;13.50;7.27;;;;;;;15.02;59.58;101269.00;6152633;23;20496;-67
2021/09/13 03:02:16;;;;;;;11.83;7.40;;;;;;;15.00;59.81;101279.81;6152112;23;20160;-67
2021/09/13 03:04:41;;;;;;;14.53;8.13;;;;;;;14.88;61.02;101280.63;6150622;23;20192;-67
2021/09/13 03:07:07;;;;;;;11.97;7.53;;;;;;;14.91;61.28;101291.66;6152421;23;20481;-67
2021/09/13 03:09:33;;;;;;;9.87;6.80;;;;;;;14.75;61.09;101252.69;6151393;23;20156;-67
2021/09/13 03:11:59;;;;;;;14.50;7.60;;;;;;;14.88;61.03;101267.44;6152486;23;20153;-67
2021/09/13 03:14:24;;;;;;;13.90;7.63;;;;;;;14.82;60.70;101260.88;6151857;23;20160;-65
2021/09/13 03:16:51;;;;;;;11.87;7.40;;;;;;;14.76;60.66;101222.81;6152046;23;20183;-67
2021/09/13 03:19:17;;;;;;;14.73;6.97;;;;;;;15.16;60.45;101285.31;6152142;23;20218;-67
2021/09/13 03:21:44;;;;;;;11.17;6.43;;;;;;;14.80;60.09;101212.31;6152103;23;20164;-67
2021/09/13 03:24:09;;;;;;;10.20;6.80;;;;;;;15.08;60.01;101290.34;6152111;23;20168;-67
2021/09/13 03:26:35;;;;;;;9.67;7.53;;;;;;;15.07;60.15;101288.00;6150187;23;20207;-67
2021/09/13 03:29:00;;;;;;;11.93;7.33;;;;;;;15.02;60.53;101289.31;6151614;23;20178;-67
2021/09/13 03:31:26;;;;;;;15.87;7.40;;;;;;;15.00;60.52;101289.00;6152147;23;20157;-65
2021/09/13 03:33:51;;;;;;;16.30;7.97;;;;;;;15.01;60.43;101289.78;6150796;23;20228;-67
2021/09/13 03:36:17;;;;;;;20.60;8.20;;;;;;;14.74;60.02;101237.19;6152117;23;20151;-67
2021/09/13 03:38:42;;;;;;;15.90;7.53;;;;;;;15.05;59.63;101280.06;6149809;23;20169;-67
2021/09/13 03:41:08;;;;;;;12.13;7.40;;;;;;;15.10;59.88;101287.88;6151889;23;20159;-65
2021/09/13 03:43:33;;;;;;;13.40;7.03;;;;;;;15.10;59.98;101293.47;6152432;23;20165;-65
2021/09/13 03:45:59;;;;;;;12.37;7.07;;;;;;;14.92;60.21;101264.53;6152604;23;20186;-67
2021/09/13 03:48:24;;;;;;;14.23;7.40;;;;;;;14.89;60.51;101266.22;6153315;23;20159;-67
2021/09/13 03:50:50;;;;;;;17.33;7.43;;;;;;;14.96;60.99;101277.16;6153840;23;20220;-67
2021/09/13 03:53:16;;;;;;;25.87;7.67;;;;;;;14.93;60.22;101272.47;6154256;23;20230;-67
2021/09/13 03:55:41;;;;;;;3.57;1.80;;;;;;;15.08;60.00;101306.31;6154028;23;20147;-67
2021/09/13 03:58:07;;;;;;;12.83;6.60;;;;;;;14.83;59.96;101278.38;6153745;23;20214;-66
2021/09/13 04:00:34;;;;;;;20.83;7.33;;;;;;;14.95;59.56;101305.50;6153762;23;20159;-67
2021/09/13 04:03:01;;;;;;;14.20;7.20;;;;;;;14.86;59.78;101303.38;6151955;23;20600;-67
2021/09/13 04:05:26;;;;;;;12.80;7.50;;;;;;;14.90;59.75;101298.47;6152269;23;20174;-67
2021/09/13 04:12:44;;;;;;;11.57;7.13;;;;;;;14.70;59.80;101303.47;6153468;23;20168;-67
2021/09/13 04:15:10;;;;;;;15.40;7.47;;;;;;;14.60;59.70;101293.41;6153859;23;20157;-67
2021/09/13 04:17:35;;;;;;;12.10;7.30;;;;;;;14.53;58.97;101282.47;6153265;23;20161;-66
2021/09/13 04:20:01;;;;;;;11.40;7.27;;;;;;;14.75;58.79;101310.53;6153903;23;20160;-66
2021/09/13 04:22:26;;;;;;;18.03;7.37;;;;;;;14.59;58.32;101300.22;6153374;23;20507;-66
2021/09/13 04:24:52;;;;;;;13.20;7.57;;;;;;;14.57;58.82;101310.25;6151494;23;20186;-66
2021/09/13 04:27:17;;;;;;;12.43;6.80;;;;;;;14.40;58.71;101292.03;6150439;23;20214;-65
2021/09/13 04:29:43;;;;;;;11.87;7.33;;;;;;;14.44;58.88;101299.06;6153197;23;20217;-66
2021/09/13 04:32:08;;;;;;;10.83;6.63;;;;;;;14.25;59.08;101288.09;6152763;23;20149;-65
2021/09/13 04:34:34;;;;;;;10.37;6.40;;;;;;;14.47;59.17;101312.16;6152690;23;20169;-65
2021/09/13 04:36:59;;;;;;;15.70;9.57;;;;;;;14.52;59.32;101306.03;6153505;23;20156;-65
2021/09/13 04:39:25;;;;;;;15.17;7.50;;;;;;;14.52;59.50;101299.66;6150401;23;20158;-65
2021/09/13 04:41:50;;;;;;;15.97;7.67;;;;;;;14.64;59.88;101313.63;6145833;23;20160;-66
2021/09/13 04:44:16;;;;;;;23.53;10.27;;;;;;;14.71;59.21;101315.44;6151014;23;20600;-66
2021/09/13 04:46:41;;;;;;;16.53;10.20;;;;;;;14.32;59.66;101262.78;6151546;23;20157;-66
2021/09/13 04:49:07;;;;;;;14.07;8.87;;;;;;;14.79;59.51;101319.56;6151154;23;20182;-66
2021/09/13 04:51:33;;;;;;;12.87;7.30;;;;;;;14.86;59.41;101317.34;6150869;23;20158;-66
2021/09/13 04:53:59;;;;;;;17.00;8.00;;;;;;;14.92;59.32;101323.94;6146332;23;20157;-66
2021/09/13 04:56:26;;;;;;;16.37;9.73;;;;;;;14.70;59.27;101278.38;6151531;23;20209;-66
2021/09/13 04:58:51;;;;;;;12.60;8.00;;;;;;;14.93;59.75;101321.91;6144734;23;20151;-66
2021/09/13 05:01:17;;;;;;;13.47;5.33;;;;;;;16.69;63.03;101325.88;6127688;23;20161;-74
2021/09/13 05:03:42;;;;;;;15.57;6.37;;;;;;;18.01;57.22;101320.94;6140357;23;20256;-74
2021/09/13 05:06:08;;;;;;;11.80;5.60;;;;;;;18.90;53.51;101327.69;6140170;23;20714;-74
2021/09/13 05:08:33;;;;;;;16.97;5.77;;;;;;;19.80;50.40;101313.25;6136586;23;20171;-71
2021/09/13 05:10:59;;;;;;;17.50;6.13;;;;;;;20.28;47.73;101297.88;6137459;23;20691;-74
2021/09/13 05:13:25;;;;;;;13.77;6.10;;;;;;;20.76;46.23;101324.63;6111196;23;20190;-74
2021/09/13 05:15:50;;;;;;;15.07;6.83;;;;;;;20.98;45.44;101325.81;6143612;23;20704;-73
2021/09/13 05:18:16;;;;;;;14.50;6.50;;;;;;;21.29;44.88;101334.50;6145468;23;20557;-72
2021/09/13 05:20:41;;;;;;;18.20;7.03;;;;;;;21.18;44.95;101306.16;6145521;23;20157;-71
2021/09/13 05:23:07;;;;;;;21.67;7.37;;;;;;;21.42;46.98;101322.91;6144385;23;20162;-71
2021/09/13 05:25:32;;;;;;;18.63;6.93;;;;;;;21.43;48.55;101313.19;6147991;23;20193;-71
2021/09/13 05:27:59;;;;;;;19.83;6.93;;;;;;;21.69;49.20;101328.97;6137356;23;20662;-71
2021/09/13 05:30:24;;;;;;;18.17;6.67;;;;;;;21.73;46.75;101331.59;6140325;23;20647;-71
2021/09/13 05:32:50;;;;;;;17.07;6.40;;;;;;;21.64;46.05;101343.00;6145501;23;20181;-71
2021/09/13 05:35:15;;;;;;;17.37;6.20;;;;;;;21.79;44.73;101344.50;6147385;23;20600;-70
2021/09/13 05:37:41;;;;;;;20.37;6.87;;;;;;;21.82;44.39;101337.91;6142418;23;20150;-71
2021/09/13 05:40:07;;;;;;;14.70;6.40;;;;;;;21.71;44.10;101340.56;6139041;23;20619;-71
2021/09/13 05:42:34;;;;;;;16.00;6.93;;;;;;;21.89;43.48;101340.28;6144210;23;20161;-71
2021/09/13 05:44:59;;;;;;;16.43;7.03;;;;;;;21.63;44.07;101336.56;6147281;23;20209;-71
2021/09/13 05:47:25;;;;;;;11.50;6.27;;;;;;;21.74;43.56;101336.00;6145930;23;20679;-71
2021/09/13 05:49:50;;;;;;;10.13;5.97;;;;;;;21.69;43.53;101340.28;6139280;23;20165;-71
2021/09/13 05:52:16;;;;;;;15.83;6.03;;;;;;;21.52;42.89;101285.66;6141992;23;20882;-71
2021/09/13 05:54:42;;;;;;;17.53;5.80;;;;;;;21.93;42.42;101331.59;6148844;23;20165;-70
2021/09/13 05:57:07;;;;;;;105.77;11.73;;;;;;;21.77;42.23;101316.03;6147676;23;20165;-71
2021/09/13 05:59:33;;;;;;;16.47;5.63;;;;;;;21.28;42.20;101239.94;6145825;23;20162;-70
2021/09/13 06:01:58;;;;;;;52.20;8.20;;;;;;;21.92;41.85;101327.25;6138831;23;20160;-70
2021/09/13 06:04:24;;;;;;;26.23;6.53;;;;;;;22.04;41.73;101328.91;6132939;23;20574;-71
2021/09/13 06:06:49;;;;;;;45.67;7.13;;;;;;;21.95;41.86;101315.72;6147321;23;20154;-71
2021/09/13 06:09:14;;;;;;;25.73;6.43;;;;;;;22.11;41.87;101332.09;6142006;23;20506;-71
2021/09/13 06:11:40;;;;;;;18.30;5.70;;;;;;;21.94;41.69;101311.38;6139576;23;20189;-71
2021/09/13 06:14:05;;;;;;;15.67;5.67;;;;;;;22.12;41.51;101332.88;6130023;23;20186;-71
2021/09/13 06:16:31;;;;;;;17.17;6.03;;;;;;;22.03;42.05;101333.03;6147896;23;20600;-70
2021/09/13 06:18:57;;;;;;;16.17;5.33;;;;;;;22.16;41.74;101336.28;6120497;23;20165;-70
2021/09/13 06:21:23;;;;;;;10.83;5.80;;;;;;;21.91;41.67;101298.22;6146022;23;20165;-71
2021/09/13 06:23:49;;;;;;;13.13;5.80;;;;;;;22.19;41.65;101336.06;6146190;23;20225;-71
2021/09/13 06:26:15;;;;;;;15.43;5.83;;;;;;;21.96;42.14;101330.63;6147995;23;20644;-71
2021/09/13 06:28:41;;;;;;;12.80;5.50;;;;;;;21.96;42.29;101333.47;6143925;23;20146;-71
2021/09/13 06:31:07;;;;;;;13.73;5.57;;;;;;;22.00;42.22;101336.84;6147722;23;20438;-71
2021/09/13 06:33:33;;;;;;;17.87;5.80;;;;;;;21.92;42.59;101335.72;6145160;23;20150;-71
2021/09/13 06:35:59;;;;;;;12.63;6.13;;;;;;;21.52;42.31;101299.75;6147557;23;20154;-71
2021/09/13 06:38:25;;;;;;;16.77;5.57;;;;;;;21.74;42.80;101342.41;6142904;23;20255;-71
2021/09/13 06:40:51;;;;;;;7.97;5.23;;;;;;;21.83;42.87;101336.63;6141099;23;20154;-71
2021/09/13 06:43:17;;;;;;;14.90;5.73;;;;;;;21.83;43.11;101335.84;6146199;23;20509;-71
2021/09/13 06:45:45;;;;;;;14.03;5.87;;;;;;;21.96;42.69;101342.69;6145270;23;20207;-70
2021/09/13 06:48:14;;;;;;;10.30;5.37;;;;;;;21.76;42.76;101322.16;6146700;23;20157;-71
2021/09/13 06:50:40;;;;;;;11.43;5.70;;;;;;;22.07;42.47;101350.53;6145823;23;20233;-71
2021/09/13 06:53:06;;;;;;;15.23;5.60;;;;;;;22.21;42.08;101352.50;6145037;23;20173;-71
2021/09/13 06:55:35;;;;;;;12.37;6.23;;;;;;;22.19;42.30;101360.69;6120386;23;20162;-71
2021/09/13 06:58:00;;;;;;;15.60;6.50;;;;;;;22.31;42.02;101360.31;6144924;23;20158;-71
2021/09/13 07:00:26;;;;;;;18.07;5.70;;;;;;;22.43;41.92;101345.06;6145727;23;20241;-71
2021/09/13 07:02:52;;;;;;;12.03;6.30;;;;;;;22.55;41.56;101354.44;6134955;23;20378;-71
2021/09/13 07:05:17;;;;;;;12.87;5.80;;;;;;;22.47;41.81;101331.50;6141850;23;20666;-71
2021/09/13 07:07:43;;;;;;;10.53;5.00;;;;;;;22.66;41.36;101357.38;6144488;23;20166;-71
2021/09/13 07:10:17;;;;;;;10.70;5.43;;;;;;;22.74;41.59;101358.50;6132395;23;20416;-69
2021/09/13 07:12:42;;;;;;;15.07;5.27;;;;;;;22.82;41.11;101356.81;6135456;23;20264;-70
2021/09/13 07:15:08;;;;;;;12.57;4.60;;;;;;;22.92;41.04;101358.94;6140858;23;20209;-71
2021/09/13 07:17:33;;;;;;;11.87;5.23;;;;;;;22.79;42.08;101360.63;6146710;23;20185;-71
2021/09/13 07:19:59;;;;;;;13.53;5.10;;;;;;;22.66;42.71;101338.41;6147290;23;20505;-71
2021/09/13 07:22:24;;;;;;;8.43;4.67;;;;;;;22.99;41.73;101358.50;6144408;23;20153;-71
2021/09/13 07:24:50;;;;;;;10.90;4.97;;;;;;;22.90;42.49;101341.72;6145509;23;20498;-71
2021/09/13 07:27:16;;;;;;;8.10;4.30;;;;;;;22.67;41.96;101308.09;6145673;23;20591;-71
2021/09/13 07:29:41;;;;;;;7.20;4.73;;;;;;;22.96;43.43;101358.72;6145800;23;20157;-71
2021/09/13 07:32:07;;;;;;;8.67;4.47;;;;;;;23.04;43.17;101359.81;6145385;23;20173;-71
2021/09/13 07:34:34;;;;;;;10.37;4.90;;;;;;;;;;6145147;23;20189;-71
2021/09/13 07:36:59;;;;;;;8.07;4.47;;;;;;;23.34;41.35;101356.22;6146739;23;20562;-72
2021/09/13 07:39:27;;;;;;;7.00;3.93;;;;;;;23.49;39.66;101362.50;6141961;23;20543;-71
2021/09/13 07:41:53;;;;;;;6.93;4.10;;;;;;;23.43;37.99;101338.31;6143739;23;20695;-71
2021/09/13 07:44:19;;;;;;;7.30;3.63;;;;;;;23.35;38.47;101314.59;6143074;23;20625;-72
2021/09/13 07:46:44;;;;;;;9.27;4.37;;;;;;;23.78;39.53;101361.41;6145238;23;20189;-72
2021/09/13 07:49:10;;;;;;;5.20;3.70;;;;;;;23.65;36.96;101327.13;6146403;23;20241;-73
2021/09/13 07:51:36;;;;;;;7.53;4.17;;;;;;;24.02;37.44;101364.66;6146262;23;20617;-73
2021/09/13 07:54:01;;;;;;;5.80;3.50;;;;;;;24.07;37.62;101361.09;6142377;23;20154;-73
2021/09/13 07:56:27;;;;;;;6.40;4.10;;;;;;;24.20;37.60;101367.06;6139914;23;20185;-61
2021/09/13 07:58:54;;;;;;;9.87;4.47;;;;;;;24.05;37.30;101315.53;6102378;23;20228;-61
2021/09/13 08:01:19;;;;;;;6.43;4.10;;;;;;;24.40;37.04;101359.16;6144860;23;20153;-61
2021/09/13 08:03:45;;;;;;;14.20;4.07;;;;;;;24.55;37.73;101362.53;6124014;23;20208;-61
2021/09/13 08:06:10;;;;;;;7.07;4.37;;;;;;;24.64;36.32;101367.22;6143653;23;20208;-62
2021/09/13 08:08:36;;;;;;;7.73;3.50;;;;;;;24.45;34.92;101327.22;6145422;23;20150;-63
2021/09/13 08:11:02;;;;;;;9.90;4.20;;;;;;;24.76;36.80;101365.97;6145705;23;20158;-62
2021/09/13 08:13:28;;;;;;;7.80;3.97;;;;;;;24.63;36.00;101320.34;6129583;23;20192;-64
2021/09/13 08:15:54;;;;;;;10.13;4.03;;;;;;;25.00;36.50;101364.19;6148140;23;20157;-63
2021/09/13 08:18:19;;;;;;;9.07;3.87;;;;;;;25.10;34.53;101364.72;6149595;23;20173;-64
2021/09/13 08:20:45;;;;;;;9.37;3.77;;;;;;;25.13;35.71;101363.69;6147416;23;20149;-64
2021/09/13 08:23:10;;;;;;;6.10;3.67;;;;;;;25.29;34.21;101366.53;6132845;23;20189;-62
2021/09/13 08:25:36;;;;;;;6.50;3.93;;;;;;;25.41;34.63;101373.78;6145111;23;20188;-62
2021/09/13 08:28:02;;;;;;;5.97;3.60;;;;;;;25.51;33.66;101355.19;6147434;23;20208;-62
2021/09/13 08:30:27;;;;;;;5.53;3.63;;;;;;;25.57;33.78;101355.16;6149298;23;20161;-63
2021/09/13 08:32:53;;;;;;;5.43;3.50;;;;;;;25.65;33.33;101356.94;6133840;23;20543;-66
2021/09/13 08:35:19;;;;;;;5.70;3.67;;;;;;;25.68;33.09;101353.09;6144236;23;20626;-66
2021/09/13 08:37:46;;;;;;;7.60;4.03;;;;;;;25.81;34.17;101355.38;6148375;23;20614;-66
2021/09/13 08:40:12;;;;;;;9.63;3.70;;;;;;;25.87;32.63;101358.97;6146463;23;20189;-65
2021/09/13 08:42:50;;;;;;;7.67;3.63;;;;;;;25.79;31.12;101341.69;6127804;23;20209;-66
2021/09/13 08:45:24;;;;;;;6.47;3.40;;;;;;;26.00;32.88;101351.47;6132902;23;20582;-65
2021/09/13 08:47:58;;;;;;;7.67;3.87;;;;;;;26.09;31.56;101356.84;6138097;23;20141;-64
2021/09/13 08:52:55;;;;;;;5.70;3.73;;;;;;;25.99;31.34;101321.53;6134173;23;20208;-66
2021/09/13 08:55:21;;;;;;;6.00;3.30;;;;;;;26.21;31.66;101346.97;6141980;23;20185;-66
2021/09/13 08:57:48;;;;;;;9.27;3.80;;;;;;;26.18;31.45;101328.16;6132553;23;20440;-63
2021/09/13 09:00:15;;;;;;;6.90;3.90;;;;;;;26.37;31.82;101336.84;6120320;23;20190;-65
2021/09/13 09:02:42;;;;;;;5.87;3.53;;;;;;;26.27;31.25;101307.19;6134562;23;20223;-67
2021/09/13 09:05:09;;;;;;;7.43;3.80;;;;;;;26.57;31.71;101342.94;6142941;23;20628;-65
2021/09/13 09:07:54;;;;;;;5.07;3.33;;;;;;;26.60;31.68;101339.06;6146413;23;20153;-66
2021/09/13 09:10:23;;;;;;;6.63;3.60;;;;;;;26.72;30.63;101340.50;6146803;23;20154;-66
2021/09/13 09:12:57;;;;;;;5.50;3.43;;;;;;;26.69;30.66;101313.16;6134174;23;20530;-66
2021/09/13 09:15:22;;;;;;;8.27;3.57;;;;;;;26.90;30.60;101324.88;6137833;23;20181;-65
2021/09/13 09:17:52;;;;;;;5.70;3.73;;;;;;;26.76;31.55;101295.50;6146105;23;20161;-67
2021/09/13 09:20:18;;;;;;;8.30;3.70;;;;;;;26.85;31.36;101289.50;6145699;23;20238;-66
2021/09/13 09:22:45;;;;;;;7.15;3.72;;;;;;;27.15;31.33;101320.78;6131439;23;20268;-65
2021/09/13 09:25:25;;;;;;;6.43;3.50;;;;;;;27.11;30.94;101291.84;6144433;23;20243;-67
2021/09/13 09:28:02;;;;;;;7.13;3.60;;;;;;;27.29;30.30;101320.44;6150364;23;20200;-63
2021/09/13 09:30:40;;;;;;;5.63;3.60;;;;;;;27.19;30.69;101276.56;6148173;23;20192;-62
2021/09/13 09:33:11;;;;;;;6.20;3.67;;;;;;;27.52;30.34;101320.97;6137195;23;20256;-66
2021/09/13 09:35:57;;;;;;;9.20;3.70;;;;;;;27.62;30.65;101320.09;6148683;23;20161;-61
2021/09/13 09:38:36;;;;;;;7.53;3.90;;;;;;;27.82;30.78;101322.50;6149331;23;20542;-64
2021/09/13 09:41:15;;;;;;;5.93;3.38;;;;;;;27.82;30.62;101313.16;6147578;23;20628;-67
2021/09/13 09:43:55;;;;;;;4.47;3.00;;;;;;;27.85;30.47;101314.94;6130652;23;20260;-65
2021/09/13 09:46:22;;;;;;;5.78;3.70;;;;;;;27.90;30.45;101302.72;6148461;23;20170;-62
2021/09/13 09:48:48;;;;;;;6.90;3.17;;;;;;;27.93;31.20;101296.72;6148410;23;20162;-64
2021/09/13 09:51:33;;;;;;;7.15;3.72;;;;;;;28.21;30.33;101314.22;6148762;23;20481;-62
2021/09/13 09:54:21;;;;;;;4.60;3.10;;;;;;;28.29;29.81;101312.28;6132350;23;20189;-62
2021/09/13 09:57:07;;;;;;;7.28;3.75;;;;;;;28.34;30.65;101302.91;6138686;23;20186;-65
2021/09/13 09:59:37;;;;;;;4.63;3.17;;;;;;;28.43;30.66;101296.06;6142890;23;20212;-69
2021/09/13 10:02:16;;;;;;;10.57;3.50;;;;;;;28.61;30.90;101303.84;6136336;23;20259;-64
2021/09/13 10:04:45;;;;;;;7.55;3.50;;;;;;;28.66;30.55;101300.13;6134563;23;20181;-64
2021/09/13 10:07:14;;;;;;;6.03;3.40;;;;;;;28.67;30.91;101293.09;6140653;23;20488;-64
2021/09/13 10:09:41;;;;;;;6.45;3.53;;;;;;;28.47;30.20;101256.59;6120634;23;20173;-64
2021/09/13 10:12:07;;;;;;;11.38;3.53;;;;;;;28.92;30.07;101300.97;6137543;23;20189;-62
2021/09/13 10:14:33;;;;;;;5.28;3.35;;;;;;;29.03;29.87;101280.09;6136965;23;20636;-62
2021/09/13 10:16:59;;;;;;;8.75;3.70;;;;;;;29.34;29.98;101294.31;6127888;23;20153;-62
2021/09/13 10:19:26;;;;;;;4.25;3.42;;;;;;;29.39;28.16;101284.09;6146700;23;20607;-63
2021/09/13 10:21:53;;;;;;;8.07;3.38;;;;;;;29.43;27.71;101279.59;6136515;23;20157;-64
2021/09/13 10:24:36;;;;;;;6.40;3.65;;;;;;;29.42;28.39;101288.72;6135497;23;20189;-61
2021/09/13 10:27:10;;;;;;;7.57;3.85;;;;;;;29.20;27.14;101240.59;6138616;23;20228;-61
2021/09/13 10:29:37;;;;;;;6.30;3.20;;;;;;;29.56;27.69;101276.00;6146967;23;20134;-62
2021/09/13 10:32:05;;;;;;;7.25;3.35;;;;;;;29.53;27.71;101274.22;6138630;23;20181;-63
2021/09/13 10:34:46;;;;;;;7.50;3.30;;;;;;;29.70;27.48;101274.69;6137499;23;20177;-62
2021/09/13 10:37:15;;;;;;;5.85;3.60;;;;;;;29.77;28.27;101268.28;6146883;23;20498;-62
2021/09/13 10:40:02;;;;;;;6.88;3.42;;;;;;;29.65;27.06;101278.44;6145184;23;20483;-61
2021/09/13 10:42:27;;;;;;;4.80;3.25;;;;;;;29.53;27.77;101274.97;6136214;23;20718;-60
2021/09/13 10:45:23;;;;;;;5.80;3.50;;;;;;;29.58;27.31;101274.13;6134681;23;20189;-64
2021/09/13 10:47:57;;;;;;;4.70;3.60;;;;;;;29.65;27.81;101262.06;6148762;23;20134;-64
2021/09/13 10:50:45;;;;;;;5.70;3.03;;;;;;;29.59;26.92;101272.81;6144772;23;20253;-64
2021/09/13 10:53:16;;;;;;;7.60;2.90;;;;;;;29.76;28.00;101266.75;6127699;23;20572;-65
2021/09/13 10:55:55;;;;;;;5.53;3.42;;;;;;;29.73;26.60;101256.47;6129570;23;20186;-65
2021/09/13 10:58:46;;;;;;;7.03;3.47;;;;;;;29.77;26.87;101260.50;6145144;23;20149;-64
2021/09/13 11:01:17;;;;;;;7.18;3.40;;;;;;;29.81;26.66;101254.44;6133479;23;20611;-64
2021/09/13 11:03:43;;;;;;;7.78;3.65;;;;;;;29.94;26.64;101243.75;6146358;23;20142;-64
2021/09/13 11:06:12;;;;;;;7.57;3.22;;;;;;;29.94;26.44;101255.19;6121823;23;20221;-66
2021/09/13 11:08:49;;;;;;;7.30;3.30;;;;;;;30.15;26.04;101249.59;6145541;23;20252;-64
2021/09/13 11:11:29;;;;;;;8.35;3.22;;;;;;;29.81;26.35;101186.66;6148014;23;20671;-64
2021/09/13 11:14:00;;;;;;;8.32;3.70;;;;;;;30.40;25.49;101245.84;6144681;23;20142;-66
2021/09/13 11:16:28;;;;;;;8.88;3.60;;;;;;;30.22;26.20;101186.00;6145093;23;20550;-64
2021/09/13 11:18:55;;;;;;;5.45;2.95;;;;;;;30.61;25.94;101237.31;6131013;23;20181;-64
2021/09/13 11:21:28;;;;;;;5.95;3.38;;;;;;;30.55;25.35;101223.13;6138554;23;20190;-64
2021/09/13 11:23:55;;;;;;;4.82;3.00;;;;;;;30.56;25.27;101218.19;6143149;23;20161;-60
2021/09/13 11:26:42;;;;;;;4.28;3.15;;;;;;;30.73;24.84;101210.75;6144239;23;20578;-62
2021/09/13 11:29:31;;;;;;;8.13;3.50;;;;;;;30.98;26.13;101223.38;6144327;23;20168;-66
2021/09/13 11:32:24;;;;;;;8.27;3.20;;;;;;;31.03;25.04;101207.38;6131141;23;20577;-66